createdAt,value
2022-11-07T00:01:41.203Z,1.85
2022-11-07T00:04:10.425Z,2.05
2022-11-07T00:06:39.398Z,2.67
2022-11-07T00:09:06.219Z,1.70
2022-11-07T00:11:33.052Z,2.60
2022-11-07T00:14:02.210Z,1.55
2022-11-07T00:16:29.346Z,1.67
2022-11-07T00:18:56.167Z,2.40
2022-11-07T00:21:23.081Z,1.30
2022-11-07T00:23:49.742Z,1.00
2022-11-07T00:26:16.633Z,1.52
2022-11-07T00:28:46.049Z,2.50
2022-11-07T00:31:16.133Z,1.10
2022-11-07T00:33:48.422Z,1.20
2022-11-07T00:36:26.512Z,2.42
2022-11-07T00:38:56.332Z,1.75
2022-11-07T00:41:23.582Z,1.05
2022-11-07T00:43:50.338Z,1.08
2022-11-07T00:46:17.450Z,3.90
2022-11-07T00:48:46.373Z,1.75
2022-11-07T00:51:33.058Z,1.23
2022-11-07T00:54:03.053Z,1.08
2022-11-07T00:56:32.230Z,1.10
2022-11-07T00:58:59.957Z,0.85
2022-11-07T01:01:31.625Z,0.80
2022-11-07T01:04:17.336Z,1.48
2022-11-07T01:06:45.497Z,1.67
2022-11-07T01:09:15.258Z,0.73
2022-11-07T01:11:43.106Z,0.80
2022-11-07T01:14:11.616Z,1.25
2022-11-07T01:16:43.109Z,1.23
2022-11-07T01:19:12.550Z,2.05
2022-11-07T01:21:42.793Z,1.13
2022-11-07T01:24:13.323Z,1.73
2022-11-07T01:26:41.922Z,0.90
2022-11-07T01:29:09.571Z,2.38
2022-11-07T01:31:38.853Z,2.78
2022-11-07T01:34:07.736Z,1.40
2022-11-07T01:36:37.035Z,0.80
2022-11-07T01:39:06.226Z,1.15
2022-11-07T01:41:37.883Z,2.10
2022-11-07T01:44:07.246Z,1.30
2022-11-07T01:46:42.166Z,0.98
2022-11-07T01:49:23.063Z,2.05
2022-11-07T01:52:09.543Z,1.20
2022-11-07T01:54:41.801Z,1.20
2022-11-07T01:57:16.885Z,1.13
2022-11-07T01:59:46.406Z,1.17
2022-11-07T02:02:13.148Z,0.82
2022-11-07T02:04:39.937Z,2.05
2022-11-07T02:07:20.193Z,1.00
2022-11-07T02:09:49.857Z,1.15
2022-11-07T02:12:20.430Z,1.10
2022-11-07T02:14:47.124Z,0.90
2022-11-07T02:17:15.815Z,2.72
2022-11-07T02:19:44.397Z,1.77
2022-11-07T02:22:35.722Z,2.95
2022-11-07T02:25:09.138Z,1.58
2022-11-07T02:27:37.401Z,1.30
2022-11-07T02:30:11.081Z,2.10
2022-11-07T02:32:38.151Z,1.58
2022-11-07T02:35:27.325Z,2.17
2022-11-07T02:37:55.006Z,2.60
2022-11-07T02:40:22.065Z,1.30
2022-11-07T02:42:50.960Z,1.80
2022-11-07T02:45:27.608Z,3.22
2022-11-07T02:47:54.371Z,4.20
2022-11-07T02:50:21.183Z,1.67
2022-11-07T02:52:47.829Z,1.27
2022-11-07T02:55:15.002Z,3.25
2022-11-07T02:57:44.992Z,3.30
2022-11-07T03:00:13.766Z,2.45
2022-11-07T03:02:46.904Z,2.72
2022-11-07T03:05:16.344Z,2.33
2022-11-07T03:07:44.659Z,4.67
2022-11-07T03:10:12.217Z,1.80
2022-11-07T03:12:39.011Z,2.33
2022-11-07T03:15:10.547Z,2.60
2022-11-07T03:17:37.558Z,2.25
2022-11-07T03:20:04.802Z,1.42
2022-11-07T03:22:31.500Z,4.80
2022-11-07T03:25:00.638Z,3.03
2022-11-07T03:27:27.415Z,1.33
2022-11-07T03:29:54.075Z,1.45
2022-11-07T03:32:20.801Z,1.92
2022-11-07T03:34:47.482Z,2.53
2022-11-07T03:37:14.384Z,3.78
2022-11-07T03:39:41.130Z,3.47
2022-11-07T03:42:09.922Z,1.75
2022-11-07T03:44:36.565Z,2.40
2022-11-07T03:47:03.301Z,1.60
2022-11-07T03:49:32.401Z,2.08
2022-11-07T03:52:01.500Z,3.47
2022-11-07T03:54:28.268Z,1.50
2022-11-07T03:56:57.457Z,1.60
2022-11-07T03:59:24.094Z,1.42
2022-11-07T04:01:53.167Z,4.25
2022-11-07T04:04:22.396Z,4.53
2022-11-07T04:06:51.514Z,3.43
2022-11-07T04:09:20.279Z,5.10
2022-11-07T04:12:05.603Z,1.75
2022-11-07T04:14:51.006Z,1.25
2022-11-07T04:17:23.215Z,1.70
2022-11-07T04:19:55.851Z,2.00
2022-11-07T04:22:26.785Z,3.03
2022-11-07T04:24:53.596Z,2.58
2022-11-07T04:27:39.244Z,6.72
2022-11-07T04:30:21.849Z,5.03
2022-11-07T04:32:59.008Z,5.72
2022-11-07T04:35:28.860Z,3.13
2022-11-07T04:37:55.513Z,2.25
2022-11-07T04:40:22.530Z,2.30
2022-11-07T04:42:49.792Z,2.88
2022-11-07T04:45:16.948Z,2.08
2022-11-07T04:47:44.203Z,2.45
2022-11-07T04:50:12.861Z,2.58
2022-11-07T04:52:39.581Z,5.00
2022-11-07T04:55:09.991Z,2.55
2022-11-07T04:57:38.887Z,4.93
2022-11-07T05:00:06.241Z,1.23
2022-11-07T05:02:32.947Z,4.82
2022-11-07T05:05:02.127Z,4.63
2022-11-07T05:07:28.810Z,3.37
2022-11-07T05:09:55.466Z,1.75
2022-11-07T05:12:26.919Z,4.50
2022-11-07T05:14:58.197Z,3.35
2022-11-07T05:17:28.186Z,2.60
2022-11-07T05:19:55.029Z,2.83
2022-11-07T05:22:40.153Z,3.28
2022-11-07T05:25:09.745Z,5.68
2022-11-07T05:27:36.414Z,3.20
2022-11-07T05:30:03.862Z,3.28
2022-11-07T05:32:38.001Z,3.78
2022-11-07T05:35:05.687Z,2.95
2022-11-07T05:37:32.425Z,4.57
2022-11-07T05:39:59.061Z,5.45
2022-11-07T05:42:28.099Z,4.22
2022-11-07T05:44:56.983Z,5.47
2022-11-07T05:47:23.621Z,3.58
2022-11-07T05:49:50.269Z,5.30
2022-11-07T05:52:16.936Z,6.30
2022-11-07T05:54:43.586Z,7.45
2022-11-07T05:57:10.281Z,3.75
2022-11-07T05:59:36.965Z,3.47
2022-11-07T06:02:03.780Z,3.90
2022-11-07T06:04:30.539Z,3.83
2022-11-07T06:06:59.694Z,4.13
2022-11-07T06:09:26.442Z,5.20
2022-11-07T06:11:55.242Z,3.88
2022-11-07T06:14:21.921Z,5.13
2022-11-07T06:16:48.584Z,2.97
2022-11-07T06:19:15.315Z,3.53
2022-11-07T06:21:42.070Z,2.75
2022-11-07T06:24:15.127Z,3.70
2022-11-07T06:26:44.490Z,4.70
2022-11-07T06:29:13.487Z,10.02
2022-11-07T06:31:40.111Z,5.07
2022-11-07T06:34:09.241Z,2.67
2022-11-07T06:36:38.106Z,3.30
2022-11-07T06:39:07.224Z,1.88
2022-11-07T06:41:33.916Z,4.00
2022-11-07T06:44:00.580Z,3.13
2022-11-07T06:46:27.305Z,2.95
2022-11-07T06:48:54.408Z,7.28
2022-11-07T06:51:21.079Z,4.78
2022-11-07T06:53:47.818Z,4.03
2022-11-07T06:56:15.798Z,6.80
2022-11-07T06:58:45.249Z,3.65
2022-11-07T07:01:17.691Z,4.55
2022-11-07T07:03:46.915Z,3.50
2022-11-07T07:06:18.878Z,5.65
2022-11-07T07:08:45.940Z,4.75
2022-11-07T07:11:15.988Z,5.45
2022-11-07T07:13:45.221Z,7.93
2022-11-07T07:16:12.988Z,3.55
2022-11-07T07:18:39.675Z,7.40
2022-11-07T07:21:14.241Z,4.10
2022-11-07T07:23:41.484Z,4.88
2022-11-07T07:26:12.610Z,3.78
2022-11-07T07:28:39.459Z,3.08
2022-11-07T07:31:13.574Z,5.60
2022-11-07T07:33:49.569Z,5.07
2022-11-07T07:36:21.260Z,5.15
2022-11-07T07:38:49.351Z,4.28
2022-11-07T07:41:19.595Z,3.80
2022-11-07T07:43:48.888Z,4.10
2022-11-07T07:46:19.358Z,5.72
2022-11-07T07:48:48.608Z,6.53
2022-11-07T07:51:17.979Z,6.30
2022-11-07T07:53:44.663Z,6.32
2022-11-07T07:56:11.394Z,4.88
2022-11-07T07:58:38.117Z,4.95
2022-11-07T08:01:10.306Z,4.97
2022-11-07T08:03:59.528Z,6.60
2022-11-07T08:06:24.642Z,3.20
2022-11-07T08:08:51.298Z,3.70
2022-11-07T08:11:20.203Z,6.97
2022-11-07T08:13:46.959Z,6.75
2022-11-07T08:16:13.674Z,4.32
2022-11-07T08:18:42.750Z,4.50
2022-11-07T08:21:11.548Z,7.93
2022-11-07T08:23:40.943Z,3.63
2022-11-07T08:26:07.736Z,6.97
2022-11-07T08:28:36.157Z,7.07
2022-11-07T08:31:11.865Z,9.93
2022-11-07T08:33:39.009Z,6.80
2022-11-07T08:36:06.988Z,4.88
2022-11-07T08:38:35.303Z,4.05
2022-11-07T08:41:03.976Z,4.38
2022-11-07T08:43:30.899Z,5.00
2022-11-07T08:45:57.816Z,5.18
2022-11-07T08:48:24.922Z,5.00
2022-11-07T08:50:53.409Z,6.68
2022-11-07T08:53:23.253Z,7.43
2022-11-07T08:58:19.574Z,5.80
2022-11-07T09:00:46.967Z,7.28
2022-11-07T09:06:00.737Z,4.60
2022-11-07T09:08:27.597Z,3.92
2022-11-07T09:10:54.353Z,3.08
2022-11-07T09:13:21.185Z,8.68
2022-11-07T09:15:51.778Z,2.90
2022-11-07T09:18:19.661Z,3.67
2022-11-07T09:20:46.440Z,5.47
2022-11-07T09:23:13.474Z,3.50
2022-11-07T09:25:40.328Z,6.43
2022-11-07T09:28:07.123Z,3.63
2022-11-07T09:30:33.987Z,1.65
2022-11-07T09:33:00.916Z,3.28
2022-11-07T09:35:30.009Z,3.10
2022-11-07T09:37:57.747Z,2.63
2022-11-07T09:40:43.045Z,2.72
2022-11-07T09:43:25.116Z,2.17
2022-11-07T09:46:02.453Z,4.20
2022-11-07T09:48:49.253Z,8.43
2022-11-07T09:51:31.774Z,5.75
2022-11-07T09:54:08.055Z,6.93
2022-11-07T09:56:35.116Z,3.75
2022-11-07T09:59:13.850Z,5.43
2022-11-07T10:01:41.446Z,2.67
2022-11-07T10:04:26.673Z,2.30
2022-11-07T10:07:33.323Z,4.55
2022-11-07T10:10:16.766Z,2.42
2022-11-07T10:12:54.479Z,3.63
2022-11-07T10:15:38.228Z,4.82
2022-11-07T10:18:26.609Z,3.67
2022-11-07T10:21:31.179Z,3.00
2022-11-07T10:24:22.177Z,6.03
2022-11-07T10:26:51.491Z,4.65
2022-11-07T10:29:20.024Z,1.90
2022-11-07T10:32:07.005Z,4.47
2022-11-07T10:34:37.687Z,6.13
2022-11-07T10:37:04.887Z,6.05
2022-11-07T10:39:32.324Z,5.40
2022-11-07T10:42:15.514Z,6.57
2022-11-07T10:44:42.836Z,3.10
2022-11-07T10:47:21.602Z,2.95
2022-11-07T10:50:05.026Z,5.32
2022-11-07T10:52:31.759Z,3.42
2022-11-07T10:55:19.106Z,2.67
2022-11-07T10:58:05.936Z,4.07
2022-11-07T11:00:36.360Z,6.13
2022-11-07T11:03:03.348Z,5.18
2022-11-07T11:05:46.401Z,3.20
2022-11-07T11:08:18.165Z,1.75
2022-11-07T11:10:45.524Z,1.90
2022-11-07T11:13:31.626Z,3.95
2022-11-07T11:16:21.199Z,2.20
2022-11-07T11:18:53.940Z,3.72
2022-11-07T11:21:21.351Z,2.42
2022-11-07T11:23:48.680Z,1.13
2022-11-07T11:26:21.320Z,2.17
2022-11-07T11:29:29.477Z,6.55
2022-11-07T11:31:58.495Z,1.75
2022-11-07T11:34:37.120Z,3.25
2022-11-07T11:37:14.934Z,1.08
2022-11-07T11:39:45.012Z,2.22
2022-11-07T11:42:32.941Z,2.00
2022-11-07T11:45:09.310Z,4.78
2022-11-07T11:47:42.818Z,1.35
2022-11-07T11:50:19.148Z,2.28
2022-11-07T11:52:46.537Z,0.98
2022-11-07T11:55:18.050Z,1.23
2022-11-07T11:58:18.900Z,1.77
2022-11-07T12:01:03.762Z,2.70
2022-11-07T12:03:42.364Z,1.63
2022-11-07T12:06:16.333Z,3.22
2022-11-07T12:09:03.122Z,3.45
2022-11-07T12:11:32.602Z,1.10
2022-11-07T12:14:08.235Z,8.98
2022-11-07T12:17:06.498Z,2.65
2022-11-07T12:19:52.113Z,5.90
2022-11-07T12:22:31.412Z,1.63
2022-11-07T12:25:13.320Z,1.48
2022-11-07T12:27:51.890Z,2.92
2022-11-07T12:30:18.534Z,3.08
2022-11-07T12:33:03.461Z,0.90
2022-11-07T12:35:40.798Z,2.25
2022-11-07T12:38:19.470Z,5.05
2022-11-07T12:41:11.134Z,1.70
2022-11-07T12:44:07.337Z,0.73
2022-11-07T12:46:48.504Z,2.70
2022-11-07T12:49:26.080Z,2.67
2022-11-07T12:51:55.838Z,1.92
2022-11-07T12:56:52.781Z,1.38
2022-11-07T12:59:29.538Z,2.22
2022-11-07T13:02:02.704Z,4.28
2022-11-07T13:04:36.319Z,4.68
2022-11-07T13:07:12.001Z,4.32
2022-11-07T13:09:38.622Z,3.70
2022-11-07T13:12:24.418Z,2.97
2022-11-07T13:14:51.531Z,2.58
2022-11-07T13:17:20.826Z,10.82
2022-11-07T13:20:00.996Z,4.80
2022-11-07T13:22:55.333Z,3.13
2022-11-07T13:25:28.554Z,1.45
2022-11-07T13:27:55.206Z,2.47
2022-11-07T13:30:31.843Z,4.18
2022-11-07T13:33:04.112Z,3.30
2022-11-07T13:35:36.984Z,1.75
2022-11-07T13:38:10.458Z,1.85
2022-11-07T13:41:01.298Z,1.55
2022-11-07T13:43:45.663Z,0.77
2022-11-07T13:46:24.272Z,1.33
2022-11-07T13:48:57.124Z,2.63
2022-11-07T13:51:38.454Z,1.67
2022-11-07T13:54:27.814Z,1.17
2022-11-07T13:56:59.990Z,1.25
2022-11-07T13:59:56.228Z,0.50
2022-11-07T14:02:31.131Z,1.85
2022-11-07T14:05:22.078Z,1.42
2022-11-07T14:08:02.160Z,1.17
2022-11-07T14:10:46.316Z,1.63
2022-11-07T14:13:30.028Z,1.98
2022-11-07T14:16:05.010Z,0.73
2022-11-07T14:18:45.562Z,1.60
2022-11-07T14:21:20.295Z,1.02
2022-11-07T14:23:47.709Z,1.38
2022-11-07T14:26:25.789Z,0.98
2022-11-07T14:28:56.871Z,2.03
2022-11-07T14:31:37.774Z,1.52
2022-11-07T14:34:13.652Z,2.40
2022-11-07T14:36:55.772Z,1.42
2022-11-07T14:39:24.319Z,1.23
2022-11-07T14:41:52.616Z,1.40
2022-11-07T14:44:36.258Z,1.20
2022-11-07T14:47:17.251Z,0.73
2022-11-07T14:49:45.843Z,0.75
2022-11-07T14:52:41.676Z,0.73
2022-11-07T14:55:18.915Z,1.00
2022-11-07T14:57:45.889Z,1.90
2022-11-07T15:00:19.291Z,1.60
2022-11-07T15:02:51.945Z,2.25
2022-11-07T15:05:25.436Z,1.48
2022-11-07T15:07:53.010Z,3.05
2022-11-07T15:10:32.711Z,1.05
2022-11-07T15:15:34.574Z,2.90
2022-11-07T15:18:06.446Z,4.63
2022-11-07T15:20:37.354Z,2.45
2022-11-07T15:23:31.247Z,2.13
2022-11-07T15:26:07.202Z,2.70
2022-11-07T15:28:50.474Z,2.50
2022-11-07T15:31:25.830Z,1.50
2022-11-07T15:33:56.069Z,3.50
2022-11-07T15:36:25.575Z,2.47
2022-11-07T15:38:56.166Z,0.93
2022-11-07T15:41:22.915Z,2.63
2022-11-07T15:43:49.604Z,2.45
2022-11-07T15:46:31.185Z,3.13
2022-11-07T15:49:00.144Z,1.60
2022-11-07T15:51:26.824Z,2.40
2022-11-07T15:53:53.530Z,4.13
2022-11-07T15:56:23.263Z,1.98
2022-11-07T16:01:17.965Z,4.35
2022-11-07T16:03:45.027Z,2.42
2022-11-07T16:06:38.910Z,2.13
2022-11-07T16:09:19.613Z,4.65
2022-11-07T16:11:46.856Z,2.03
2022-11-07T16:14:42.824Z,1.23
2022-11-07T16:17:15.591Z,2.78
2022-11-07T16:19:42.386Z,1.88
2022-11-07T16:22:12.206Z,1.65
2022-11-07T16:27:09.717Z,2.72
2022-11-07T16:29:36.610Z,3.05
2022-11-07T16:32:05.563Z,1.75
2022-11-07T16:34:36.922Z,1.70
2022-11-07T16:37:03.608Z,3.90
2022-11-07T16:39:31.551Z,2.67
2022-11-07T16:41:58.219Z,1.05
2022-11-07T16:44:26.566Z,2.00
2022-11-07T16:46:57.459Z,1.00
2022-11-07T16:49:30.712Z,2.67
2022-11-07T16:52:00.177Z,0.65
2022-11-07T16:54:26.957Z,2.35
2022-11-07T16:56:56.681Z,0.80
2022-11-07T17:01:52.072Z,3.58
2022-11-07T17:04:18.908Z,4.97
2022-11-07T17:06:47.473Z,2.97
2022-11-07T17:09:16.745Z,4.25
2022-11-07T17:11:44.446Z,3.13
2022-11-07T17:14:11.664Z,4.35
2022-11-07T17:16:43.894Z,3.00
2022-11-07T17:19:12.837Z,3.88
2022-11-07T17:21:46.025Z,5.07
2022-11-07T17:24:13.737Z,4.00
2022-11-07T17:26:40.446Z,4.60
2022-11-07T17:29:13.341Z,3.58
2022-11-07T17:31:42.685Z,3.58
2022-11-07T17:34:11.774Z,5.90
2022-11-07T17:36:46.217Z,2.22
2022-11-07T17:39:20.970Z,3.42
2022-11-07T17:41:49.854Z,3.22
2022-11-07T17:44:19.681Z,8.50
2022-11-07T17:49:17.377Z,4.57
2022-11-07T17:51:47.124Z,2.85
2022-11-07T17:54:15.771Z,5.50
2022-11-07T17:56:42.541Z,2.67
2022-11-07T17:59:13.279Z,5.20
2022-11-07T18:01:40.653Z,2.88
2022-11-07T18:04:09.075Z,2.20
2022-11-07T18:06:37.742Z,5.53
2022-11-07T18:09:10.903Z,6.20
2022-11-07T18:11:39.868Z,6.22
2022-11-07T18:14:06.524Z,5.30
2022-11-07T18:16:34.867Z,6.55
2022-11-07T18:19:02.301Z,6.40
2022-11-07T18:21:29.277Z,8.40
2022-11-07T18:23:58.882Z,6.32
2022-11-07T18:26:30.941Z,5.05
2022-11-07T18:29:03.870Z,4.10
2022-11-07T18:31:30.664Z,3.85
2022-11-07T18:33:58.727Z,6.22
2022-11-07T18:36:25.795Z,8.07
2022-11-07T18:38:52.831Z,8.82
2022-11-07T18:41:21.912Z,5.13
2022-11-07T18:43:54.091Z,3.95
2022-11-07T18:46:21.863Z,5.60
2022-11-07T18:48:50.618Z,5.03
2022-11-07T18:51:23.275Z,5.70
2022-11-07T18:53:51.518Z,4.32
2022-11-07T18:56:18.474Z,7.95
2022-11-07T18:58:45.489Z,4.75
2022-11-07T19:01:19.390Z,4.85
2022-11-07T19:03:47.092Z,11.05
2022-11-07T19:06:16.841Z,4.95
2022-11-07T19:11:13.199Z,6.10
2022-11-07T19:13:45.497Z,3.07
2022-11-07T19:16:15.576Z,5.93
2022-11-07T19:18:49.099Z,6.88
2022-11-07T19:21:19.730Z,10.10
2022-11-07T19:23:47.404Z,7.72
2022-11-07T19:26:14.403Z,3.97
2022-11-07T19:28:43.276Z,8.13
2022-11-07T19:31:13.203Z,8.13
2022-11-07T19:33:41.458Z,6.85
2022-11-07T19:36:12.568Z,7.28
2022-11-07T19:38:39.493Z,5.68
2022-11-07T19:41:07.715Z,7.55
2022-11-07T19:43:35.304Z,7.45
2022-11-07T19:46:15.198Z,7.93
2022-11-07T19:48:44.151Z,7.38
2022-11-07T19:51:20.933Z,7.00
2022-11-07T19:53:52.677Z,6.55
2022-11-07T19:56:19.463Z,8.05
2022-11-07T19:58:46.230Z,8.00
2022-11-07T20:01:21.284Z,6.32
2022-11-07T20:03:50.324Z,11.23
2022-11-07T20:06:20.350Z,7.18
2022-11-07T20:08:47.269Z,10.02
2022-11-07T20:11:15.679Z,6.78
2022-11-07T20:13:43.194Z,9.13
2022-11-07T20:16:10.772Z,6.75
2022-11-07T20:18:38.646Z,6.75
2022-11-07T20:21:10.301Z,6.55
2022-11-07T20:23:37.495Z,7.00
2022-11-07T20:26:12.368Z,9.00
2022-11-07T20:28:39.250Z,7.82
2022-11-07T20:31:12.402Z,5.68
2022-11-07T20:33:39.107Z,7.38
2022-11-07T20:36:08.726Z,8.95
2022-11-07T20:38:36.099Z,6.28
2022-11-07T20:41:06.660Z,7.28
2022-11-07T20:43:34.132Z,6.45
2022-11-07T20:46:09.931Z,5.55
2022-11-07T20:48:39.446Z,4.72
2022-11-07T20:51:10.993Z,4.68
2022-11-07T20:53:49.539Z,6.10
2022-11-07T20:56:20.406Z,8.75
2022-11-07T20:58:47.785Z,5.32
2022-11-07T21:01:36.842Z,7.60
2022-11-07T21:04:05.166Z,6.63
2022-11-07T21:06:32.483Z,6.80
2022-11-07T21:09:02.155Z,4.75
2022-11-07T21:14:01.688Z,6.40
2022-11-07T21:16:28.463Z,5.57
2022-11-07T21:18:55.666Z,5.93
2022-11-07T21:21:26.980Z,9.18
2022-11-07T21:23:54.933Z,8.23
2022-11-07T21:26:31.742Z,4.40
2022-11-07T21:29:01.545Z,7.13
2022-11-07T21:33:57.485Z,7.32
2022-11-07T21:36:27.179Z,7.82
2022-11-07T21:38:55.318Z,7.97
2022-11-07T21:41:25.080Z,7.72
2022-11-07T21:43:52.066Z,8.02
2022-11-07T21:46:21.744Z,7.38
2022-11-07T21:48:48.932Z,7.57
2022-11-07T21:51:18.722Z,5.80
2022-11-07T21:53:46.435Z,4.95
2022-11-07T21:56:16.231Z,9.73
2022-11-07T22:01:09.840Z,7.80
2022-11-07T22:04:04.487Z,6.07
2022-11-07T22:06:23.506Z,4.43
2022-11-07T22:08:54.009Z,10.00
2022-11-07T22:11:20.821Z,4.45
2022-11-07T22:13:49.671Z,5.07
2022-11-07T22:16:21.331Z,7.38
2022-11-07T22:18:52.632Z,8.38
2022-11-07T22:21:21.427Z,5.13
2022-11-07T22:23:51.273Z,5.93
2022-11-07T22:28:52.186Z,3.50
2022-11-07T22:31:25.046Z,21.98
2022-11-07T22:33:57.001Z,6.10
2022-11-07T22:36:24.533Z,6.35
2022-11-07T22:38:53.909Z,6.50
2022-11-07T22:41:23.073Z,8.73
2022-11-07T22:43:50.670Z,6.10
2022-11-07T22:46:20.336Z,4.85
2022-11-07T22:48:48.586Z,4.75
2022-11-07T22:51:20.096Z,8.30
2022-11-07T22:53:54.671Z,6.68
2022-11-07T22:56:26.057Z,5.40
2022-11-07T22:58:53.077Z,8.60
2022-11-07T23:01:28.316Z,6.90
2022-11-07T23:03:56.297Z,9.32
2022-11-07T23:06:24.154Z,6.35
2022-11-07T23:08:51.406Z,6.07
2022-11-07T23:14:19.122Z,8.25
2022-11-07T23:16:51.385Z,6.03
2022-11-07T23:19:20.298Z,5.32
2022-11-07T23:21:47.121Z,9.88
2022-11-07T23:24:14.277Z,6.65
2022-11-07T23:26:41.367Z,6.45
2022-11-07T23:29:15.301Z,9.48
2022-11-07T23:31:45.262Z,5.95
2022-11-07T23:34:12.568Z,5.88
2022-11-07T23:36:44.837Z,5.53
2022-11-07T23:39:17.223Z,5.25
2022-11-07T23:41:44.762Z,7.93
2022-11-07T23:44:11.622Z,6.22
2022-11-07T23:46:57.044Z,8.00
2022-11-07T23:49:35.817Z,8.30
2022-11-07T23:52:07.789Z,6.07
2022-11-07T23:54:53.192Z,6.15
2022-11-07T23:57:20.319Z,10.63
